Time;durP1;ratioP1;P1;durP2;ratioP2;P2;SDS_P1;SDS_P2;PMS_P1;PMS_P2;Temp;Humidity;BMP_temperature;BMP_pressure;BME280_temperature;BME280_humidity;BME280_pressure;Samples;Min_cycle;Max_cycle;Signal;HPM_P1;HPM_P2
2021/09/05 00:02:02;;;;;;;12.43;4.13;;;;;;;;;;5009152;28;20119;-79
2021/09/05 00:04:28;;;;;;;14.77;3.90;;;;;;;;;;5006381;28;20450;-80
2021/09/05 00:06:54;;;;;;;14.57;4.43;;;;;;;;;;4999836;28;20120;-81
2021/09/05 00:09:21;;;;;;;10.60;4.10;;;;;;;;;;5006255;28;20042;-80
2021/09/05 00:11:47;;;;;;;11.27;4.07;;;;;;;;;;4999712;28;20564;-81
2021/09/05 00:14:13;;;;;;;16.75;4.32;;;;;;;;;;5007102;28;20792;-80
2021/09/05 00:16:39;;;;;;;11.80;4.10;;;;;;;;;;5009281;28;20105;-80
2021/09/05 00:19:05;;;;;;;12.10;3.53;;;;;;;;;;5001533;28;20040;-81
2021/09/05 00:21:31;;;;;;;13.73;3.60;;;;;;;;;;5002518;28;20069;-80
2021/09/05 00:23:58;;;;;;;13.93;3.95;;;;;;;;;;5001735;28;20717;-80
2021/09/05 00:26:25;;;;;;;11.45;3.80;;;;;;;;;;4999310;28;20039;-79
2021/09/05 00:28:51;;;;;;;10.55;3.80;;;;;;;;;;4997862;28;20025;-79
2021/09/05 00:31:18;;;;;;;12.98;4.20;;;;;;;;;;5004209;28;20033;-79
2021/09/05 00:33:44;;;;;;;11.73;3.53;;;;;;;;;;5004031;28;20079;-79
2021/09/05 00:36:10;;;;;;;12.20;4.10;;;;;;;;;;5016407;28;20033;-80
2021/09/05 00:38:36;;;;;;;12.65;3.95;;;;;;;;;;5004525;28;20025;-79
2021/09/05 00:41:02;;;;;;;12.10;3.85;;;;;;;;;;4995271;28;20033;-80
2021/09/05 00:43:28;;;;;;;13.35;3.90;;;;;;;;;;5020790;28;20878;-79
2021/09/05 00:45:54;;;;;;;11.50;3.80;;;;;;;;;;5011722;28;20143;-79
2021/09/05 00:48:20;;;;;;;11.43;3.63;;;;;;;;;;4998929;28;20544;-79
2021/09/05 00:50:47;;;;;;;13.52;3.50;;;;;;;;;;4996904;28;20082;-81
2021/09/05 00:53:13;;;;;;;11.98;3.45;;;;;;;;;;5002590;28;20091;-81
2021/09/05 00:55:39;;;;;;;12.00;2.90;;;;;;;;;;5002941;28;20025;-79
2021/09/05 00:58:09;;;;;;;8.32;2.80;;;;;;;;;;5011650;28;20111;-79
2021/09/05 01:00:35;;;;;;;10.60;3.40;;;;;;;;;;5002528;28;20123;-80
2021/09/05 01:03:02;;;;;;;11.07;3.00;;;;;;;;;;4999877;28;20049;-81
2021/09/05 01:05:29;;;;;;;11.25;3.50;;;;;;;;;;5003285;28;20041;-79
2021/09/05 01:07:55;;;;;;;10.65;3.50;;;;;;;;;;4998730;28;20440;-79
2021/09/05 01:10:23;;;;;;;11.27;3.58;;;;;;;;;;5017450;28;20033;-80
2021/09/05 01:12:50;;;;;;;12.73;3.15;;;;;;;;;;4995462;28;20038;-79
2021/09/05 01:15:16;;;;;;;12.00;3.13;;;;;;;;;;5001326;28;20025;-80
2021/09/05 01:17:42;;;;;;;12.63;3.13;;;;;;;;;;5002683;28;20103;-79
2021/09/05 01:20:09;;;;;;;9.73;3.13;;;;;;;;;;4999768;28;20492;-80
2021/09/05 01:22:36;;;;;;;13.20;3.30;;;;;;;;;;5002115;28;20136;-80
2021/09/05 01:25:04;;;;;;;11.77;3.17;;;;;;;;;;5016547;28;20041;-79
2021/09/05 01:27:30;;;;;;;8.43;2.75;;;;;;;;;;5007117;28;20377;-79
2021/09/05 01:29:56;;;;;;;10.80;3.25;;;;;;;;;;5001739;28;20021;-79
2021/09/05 01:32:22;;;;;;;10.45;2.88;;;;;;;;;;5000920;28;20064;-79
2021/09/05 01:34:48;;;;;;;10.65;2.90;;;;;;;;;;4999980;28;20116;-79
2021/09/05 01:37:14;;;;;;;10.45;2.97;;;;;;;;;;5001352;28;20028;-79
2021/09/05 01:39:41;;;;;;;12.15;3.00;;;;;;;;;;4996367;28;20026;-79
2021/09/05 01:42:07;;;;;;;12.27;3.88;;;;;;;;;;4993349;28;20090;-79
2021/09/05 01:44:33;;;;;;;9.80;3.50;;;;;;;;;;4997525;28;20026;-79
2021/09/05 01:46:59;;;;;;;9.32;3.40;;;;;;;;;;4998335;28;20145;-79
2021/09/05 01:49:25;;;;;;;10.65;3.17;;;;;;;;;;4997512;28;20122;-79
2021/09/05 01:51:51;;;;;;;11.05;2.97;;;;;;;;;;4997458;28;20088;-79
2021/09/05 01:54:18;;;;;;;12.73;3.70;;;;;;;;;;5002281;28;20080;-79
2021/09/05 01:56:44;;;;;;;11.48;3.45;;;;;;;;;;4997570;28;20022;-79
2021/09/05 01:59:10;;;;;;;10.63;3.50;;;;;;;;;;5002059;28;20033;-79
2021/09/05 02:01:36;;;;;;;8.80;3.10;;;;;;;;;;4998920;28;20119;-79
2021/09/05 02:04:04;;;;;;;10.48;3.00;;;;;;;;;;4998563;28;23619;-78
2021/09/05 02:06:31;;;;;;;10.25;3.10;;;;;;;;;;5004642;28;20441;-79
2021/09/05 02:08:57;;;;;;;13.35;3.60;;;;;;;;;;4996227;28;20118;-78
2021/09/05 02:11:23;;;;;;;11.55;3.45;;;;;;;;;;5008065;28;20346;-80
2021/09/05 02:13:50;;;;;;;12.45;3.33;;;;;;;;;;4993881;28;20026;-81
2021/09/05 02:16:16;;;;;;;11.93;3.40;;;;;;;;;;5004747;28;20112;-80
2021/09/05 02:18:43;;;;;;;9.07;3.47;;;;;;;;;;5007056;28;20053;-80
2021/09/05 02:21:09;;;;;;;14.00;3.80;;;;;;;;;;5004726;28;20025;-80
2021/09/05 02:23:36;;;;;;;13.30;3.42;;;;;;;;;;5013822;28;20108;-80
2021/09/05 02:26:02;;;;;;;9.45;2.97;;;;;;;;;;5009106;28;20112;-80
2021/09/05 02:28:28;;;;;;;9.07;3.30;;;;;;;;;;5010170;28;20033;-80
2021/09/05 02:30:55;;;;;;;11.65;3.33;;;;;;;;;;5022656;28;20091;-79
2021/09/05 02:33:21;;;;;;;12.52;3.50;;;;;;;;;;5002994;28;20022;-79
2021/09/05 02:35:47;;;;;;;10.65;3.30;;;;;;;;;;5002912;28;20022;-79
2021/09/05 02:38:13;;;;;;;12.25;3.35;;;;;;;;;;5000155;28;20028;-80
2021/09/05 02:40:40;;;;;;;11.05;3.28;;;;;;;;;;5005975;28;20516;-79
2021/09/05 02:43:06;;;;;;;9.57;3.00;;;;;;;;;;4998239;28;20153;-79
2021/09/05 02:45:32;;;;;;;9.38;3.15;;;;;;;;;;5001703;28;20112;-80
2021/09/05 02:47:59;;;;;;;11.27;3.20;;;;;;;;;;4997704;28;20034;-78
2021/09/05 02:50:25;;;;;;;10.77;3.60;;;;;;;;;;5003608;28;20029;-78
2021/09/05 02:52:51;;;;;;;12.27;3.30;;;;;;;;;;5003672;28;20033;-79
2021/09/05 02:55:17;;;;;;;9.90;2.92;;;;;;;;;;5019067;28;20230;-80
2021/09/05 02:57:43;;;;;;;13.45;3.30;;;;;;;;;;5001769;28;20452;-80
2021/09/05 03:00:10;;;;;;;10.57;3.10;;;;;;;;;;5004407;28;20021;-79
2021/09/05 03:02:36;;;;;;;11.38;3.40;;;;;;;;;;4997448;28;20445;-80
2021/09/05 03:05:02;;;;;;;12.05;3.17;;;;;;;;;;4998670;28;20187;-81
2021/09/05 03:07:28;;;;;;;13.48;3.20;;;;;;;;;;4997956;28;20080;-80
2021/09/05 03:09:54;;;;;;;10.65;3.10;;;;;;;;;;5002515;28;20120;-81
2021/09/05 03:12:23;;;;;;;10.68;3.33;;;;;;;;;;5006028;28;20022;-79
2021/09/05 03:14:50;;;;;;;11.15;3.58;;;;;;;;;;4999232;28;20112;-78
2021/09/05 03:17:16;;;;;;;12.02;3.60;;;;;;;;;;5009465;28;20109;-81
2021/09/05 03:19:43;;;;;;;11.18;3.38;;;;;;;;;;5006665;28;20054;-78
2021/09/05 03:22:09;;;;;;;11.45;2.88;;;;;;;;;;5002750;28;20033;-80
2021/09/05 03:24:35;;;;;;;10.02;3.33;;;;;;;;;;5005932;28;20029;-78
2021/09/05 03:27:01;;;;;;;10.18;3.10;;;;;;;;;;4998305;28;20030;-79
2021/09/05 03:29:27;;;;;;;13.73;3.03;;;;;;;;;;5002706;28;20036;-79
2021/09/05 03:31:53;;;;;;;9.80;3.17;;;;;;;;;;5016384;28;20044;-79
2021/09/05 03:34:20;;;;;;;11.95;3.88;;;;;;;;;;5010771;28;20018;-79
2021/09/05 03:36:46;;;;;;;14.20;3.90;;;;;;;;;;5015072;28;20080;-78
2021/09/05 03:39:12;;;;;;;11.10;3.70;;;;;;;;;;5005499;28;20030;-79
2021/09/05 03:41:39;;;;;;;9.43;2.88;;;;;;;;;;5002899;28;20128;-81
2021/09/05 03:44:05;;;;;;;10.75;3.17;;;;;;;;;;4997140;28;20065;-80
2021/09/05 03:46:31;;;;;;;10.77;3.40;;;;;;;;;;5012080;28;20075;-80
2021/09/05 03:48:57;;;;;;;10.55;3.58;;;;;;;;;;4996812;28;20030;-80
2021/09/05 03:51:23;;;;;;;8.77;3.42;;;;;;;;;;5003634;28;20788;-79
2021/09/05 03:53:49;;;;;;;10.80;3.60;;;;;;;;;;4997763;28;20029;-79
2021/09/05 03:56:15;;;;;;;12.55;4.00;;;;;;;;;;5001439;28;20053;-79
2021/09/05 03:58:42;;;;;;;11.30;3.97;;;;;;;;;;4997399;28;20112;-79
2021/09/05 04:01:08;;;;;;;10.52;3.47;;;;;;;;;;4995442;28;20025;-79
2021/09/05 04:03:34;;;;;;;10.48;3.20;;;;;;;;;;4999360;28;20029;-79
2021/09/05 04:06:02;;;;;;;10.90;3.80;;;;;;;;;;4990687;28;20036;-79
2021/09/05 04:08:39;;;;;;;11.93;3.65;;;;;;;;;;4998083;28;20116;-79
2021/09/05 04:11:05;;;;;;;11.73;3.28;;;;;;;;;;5011275;28;20669;-80
2021/09/05 04:13:31;;;;;;;11.10;3.13;;;;;;;;;;5000512;28;20112;-80
2021/09/05 04:15:57;;;;;;;9.68;3.20;;;;;;;;;;4999908;28;20759;-79
2021/09/05 04:18:24;;;;;;;14.00;4.35;;;;;;;;;;5004471;28;20634;-79
2021/09/05 04:20:50;;;;;;;9.77;3.08;;;;;;;;;;5001103;28;20033;-79
2021/09/05 04:23:16;;;;;;;10.73;3.70;;;;;;;;;;5004142;28;20029;-79
2021/09/05 04:25:42;;;;;;;9.38;3.55;;;;;;;;;;5003600;28;20787;-79
2021/09/05 04:28:08;;;;;;;8.82;2.70;;;;;;;;;;5023782;28;20045;-80
2021/09/05 04:30:34;;;;;;;;;;;;;;;;;;5009813;28;20037;-80
2021/09/05 04:33:00;;;;;;;11.65;3.33;;;;;;;;;;5005074;28;19919;-80
2021/09/05 04:35:27;;;;;;;9.52;3.10;;;;;;;;;;5003647;28;20033;-80
2021/09/05 04:37:53;;;;;;;13.45;3.40;;;;;;;;;;5000564;28;20101;-80
2021/09/05 04:40:19;;;;;;;11.15;3.83;;;;;;;;;;5007190;28;20056;-80
2021/09/05 04:42:46;;;;;;;15.32;4.47;;;;;;;;;;4999106;28;20017;-80
2021/09/05 04:45:12;;;;;;;13.45;4.05;;;;;;;;;;5011666;28;20036;-79
2021/09/05 04:47:38;;;;;;;10.30;4.05;;;;;;;;;;5003739;28;20124;-79
2021/09/05 04:50:04;;;;;;;13.40;3.40;;;;;;;;;;5001800;28;20037;-80
2021/09/05 04:52:30;;;;;;;11.20;3.33;;;;;;;;;;5003531;28;20018;-79
2021/09/05 04:54:57;;;;;;;9.30;3.15;;;;;;;;;;4996181;28;20029;-79
2021/09/05 04:57:23;;;;;;;12.70;3.50;;;;;;;;;;5012873;28;20018;-78
2021/09/05 04:59:49;;;;;;;10.65;3.67;;;;;;;;;;5014020;28;20034;-78
2021/09/05 05:02:15;;;;;;;;;;;;;;;;;;5021260;28;20029;-80
2021/09/05 05:04:41;;;;;;;9.38;3.08;;;;;;;;;;5007931;28;19909;-78
2021/09/05 05:07:08;;;;;;;11.93;3.45;;;;;;;;;;5000276;28;20507;-78
2021/09/05 05:09:34;;;;;;;9.77;2.78;;;;;;;;;;5006510;28;20054;-78
2021/09/05 05:12:01;;;;;;;12.02;3.70;;;;;;;;;;4998523;28;21264;-79
2021/09/05 05:14:27;;;;;;;11.75;3.78;;;;;;;;;;5004551;28;20033;-79
2021/09/05 05:16:53;;;;;;;12.35;3.90;;;;;;;;;;4997873;28;20745;-79
2021/09/05 05:19:19;;;;;;;;;;;;;;;;;;4999750;28;20026;-80
2021/09/05 05:21:45;;;;;;;9.10;3.22;;;;;;;;;;5011549;28;19919;-79
2021/09/05 05:24:11;;;;;;;10.82;2.78;;;;;;;;;;5002577;28;20033;-79
2021/09/05 05:26:37;;;;;;;;;;;;;;;;;;5006037;28;20499;-80
2021/09/05 05:29:03;;;;;;;10.02;3.00;;;;;;;;;;4999204;28;20047;-78
2021/09/05 05:31:29;;;;;;;13.90;3.42;;;;;;;;;;5001193;28;20041;-79
2021/09/05 05:33:56;;;;;;;9.95;3.20;;;;;;;;;;5000669;28;20025;-79
2021/09/05 05:36:22;;;;;;;;;;;;;;;;;;5003506;28;20109;-79
2021/09/05 05:38:48;;;;;;;9.77;3.58;;;;;;;;;;4995903;28;20035;-79
2021/09/05 05:41:15;;;;;;;11.90;3.60;;;;;;;;;;5001727;28;20022;-79
2021/09/05 05:43:41;;;;;;;16.17;4.45;;;;;;;;;;4997004;28;20018;-79
2021/09/05 05:46:07;;;;;;;11.93;3.40;;;;;;;;;;5000325;28;20033;-79
2021/09/05 05:48:33;;;;;;;;;;;;;;;;;;4999337;28;20025;-79
2021/09/05 05:50:59;;;;;;;12.52;3.50;;;;;;;;;;4995428;28;19979;-79
2021/09/05 05:53:25;;;;;;;13.35;3.88;;;;;;;;;;5000271;28;20116;-79
2021/09/05 05:55:51;;;;;;;11.82;3.95;;;;;;;;;;4993675;28;20026;-79
2021/09/05 05:58:18;;;;;;;11.40;3.60;;;;;;;;;;4999144;28;20032;-79
2021/09/05 06:00:44;;;;;;;13.52;4.22;;;;;;;;;;4997488;28;20436;-79
2021/09/05 06:03:10;;;;;;;12.70;3.72;;;;;;;;;;4997238;28;20469;-80
2021/09/05 06:05:36;;;;;;;12.63;3.75;;;;;;;;;;4998780;28;20033;-79
2021/09/05 06:08:03;;;;;;;10.15;3.28;;;;;;;;;;4995471;28;20037;-79
2021/09/05 06:10:30;;;;;;;11.27;3.58;;;;;;;;;;5000781;28;20053;-78
2021/09/05 06:12:56;;;;;;;11.38;3.38;;;;;;;;;;4996548;28;20048;-78
2021/09/05 06:15:22;;;;;;;9.82;2.92;;;;;;;;;;4999445;28;20107;-79
2021/09/05 06:17:48;;;;;;;11.13;3.45;;;;;;;;;;4992953;28;20131;-79
2021/09/05 06:20:15;;;;;;;9.18;2.85;;;;;;;;;;4997639;28;20017;-79
2021/09/05 06:22:41;;;;;;;11.82;3.70;;;;;;;;;;5001362;28;20029;-79
2021/09/05 06:25:07;;;;;;;10.57;3.97;;;;;;;;;;4997910;28;22438;-79
2021/09/05 06:27:33;;;;;;;9.18;3.35;;;;;;;;;;4998806;28;20120;-79
2021/09/05 06:30:02;;;;;;;11.18;3.45;;;;;;;;;;4998091;28;20826;-80
2021/09/05 06:32:29;;;;;;;14.52;4.55;;;;;;;;;;4999240;28;20372;-79
2021/09/05 06:34:55;;;;;;;11.57;3.80;;;;;;;;;;5010280;28;20032;-80
2021/09/05 06:37:21;;;;;;;12.02;4.00;;;;;;;;;;5002774;28;20049;-80
2021/09/05 06:39:48;;;;;;;13.38;4.07;;;;;;;;;;4995382;28;20582;-80
2021/09/05 06:42:15;;;;;;;12.82;4.35;;;;;;;;;;4999448;28;20057;-80
2021/09/05 06:44:41;;;;;;;15.40;4.57;;;;;;;;;;4998542;28;20038;-80
2021/09/05 06:47:07;;;;;;;12.30;4.45;;;;;;;;;;4993574;28;20569;-81
2021/09/05 06:49:33;;;;;;;12.52;3.83;;;;;;;;;;4999245;28;20030;-80
2021/09/05 06:51:59;;;;;;;13.40;3.90;;;;;;;;;;4991680;28;20090;-79
2021/09/05 06:54:26;;;;;;;12.55;3.70;;;;;;;;;;4998281;28;20124;-80
2021/09/05 06:56:52;;;;;;;11.32;3.85;;;;;;;;;;4993147;28;20029;-79
2021/09/05 06:59:18;;;;;;;14.32;4.32;;;;;;;;;;4996476;28;20026;-80
2021/09/05 07:01:44;;;;;;;12.00;3.45;;;;;;;;;;4992962;28;20099;-79
2021/09/05 07:04:11;;;;;;;12.07;3.45;;;;;;;;;;5006682;28;20038;-80
2021/09/05 07:06:38;;;;;;;10.93;3.25;;;;;;;;;;4998843;28;20056;-80
2021/09/05 07:09:04;;;;;;;11.18;3.28;;;;;;;;;;4990102;28;20073;-80
2021/09/05 07:11:31;;;;;;;14.55;3.88;;;;;;;;;;4998346;28;20102;-79
2021/09/05 07:13:57;;;;;;;12.32;3.83;;;;;;;;;;4993911;28;20859;-80
2021/09/05 07:16:23;;;;;;;12.43;3.65;;;;;;;;;;4993501;28;20029;-81
2021/09/05 07:18:49;;;;;;;13.23;3.67;;;;;;;;;;4994024;28;20082;-80
2021/09/05 07:21:15;;;;;;;12.68;3.42;;;;;;;;;;4991849;28;20083;-79
2021/09/05 07:23:41;;;;;;;13.57;3.67;;;;;;;;;;4995315;28;20120;-80
2021/09/05 07:26:07;;;;;;;11.98;3.55;;;;;;;;;;4972053;28;20085;-80
2021/09/05 07:28:36;;;;;;;10.55;3.25;;;;;;;;;;4993987;28;20013;-82
2021/09/05 07:31:03;;;;;;;11.40;3.53;;;;;;;;;;4995607;28;20765;-80
2021/09/05 07:33:29;;;;;;;12.60;4.25;;;;;;;;;;4993734;28;20025;-80
2021/09/05 07:35:55;;;;;;;10.82;3.38;;;;;;;;;;4992590;28;20025;-81
2021/09/05 07:38:21;;;;;;;9.43;3.17;;;;;;;;;;4994630;28;20060;-80
2021/09/05 07:40:47;;;;;;;11.52;3.53;;;;;;;;;;4989213;28;20053;-80
2021/09/05 07:43:13;;;;;;;12.63;3.40;;;;;;;;;;5012602;28;20037;-80
2021/09/05 07:45:40;;;;;;;12.93;3.70;;;;;;;;;;5005924;28;20032;-80
2021/09/05 07:48:06;;;;;;;12.45;3.60;;;;;;;;;;5005118;28;20033;-80
2021/09/05 07:50:32;;;;;;;10.48;3.47;;;;;;;;;;4999785;28;20037;-80
2021/09/05 07:52:58;;;;;;;11.15;3.50;;;;;;;;;;5010548;28;20859;-80
2021/09/05 07:55:25;;;;;;;12.23;3.85;;;;;;;;;;4996362;28;20032;-80
2021/09/05 07:57:51;;;;;;;12.70;3.55;;;;;;;;;;4991950;28;20061;-80
2021/09/05 08:00:17;;;;;;;11.95;3.88;;;;;;;;;;4997798;28;20128;-81
2021/09/05 08:02:43;;;;;;;12.82;3.75;;;;;;;;;;4997633;28;20029;-80
2021/09/05 08:05:10;;;;;;;13.95;4.15;;;;;;;;;;4994648;28;20111;-80
2021/09/05 08:07:37;;;;;;;11.63;2.80;;;;;;;;;;4999149;28;21576;-81
2021/09/05 08:10:04;;;;;;;12.27;3.25;;;;;;;;;;4994210;28;20608;-79
2021/09/05 08:12:30;;;;;;;12.52;3.70;;;;;;;;;;5014105;28;20494;-80
2021/09/05 08:14:56;;;;;;;15.38;4.10;;;;;;;;;;5005268;28;20022;-80
2021/09/05 08:17:22;;;;;;;13.43;3.58;;;;;;;;;;4997210;28;20093;-79
2021/09/05 08:19:50;;;;;;;11.57;3.03;;;;;;;;;;4993106;28;20044;-79
2021/09/05 08:22:17;;;;;;;13.48;3.78;;;;;;;;;;5003233;28;20039;-80
2021/09/05 08:24:43;;;;;;;10.25;3.10;;;;;;;;;;5003082;28;20033;-80
2021/09/05 08:27:09;;;;;;;14.10;3.50;;;;;;;;;;4998524;28;20030;-79
2021/09/05 08:29:35;;;;;;;13.10;3.05;;;;;;;;;;5000682;28;20030;-79
2021/09/05 08:32:02;;;;;;;13.32;3.40;;;;;;;;;;4997490;28;20029;-80
2021/09/05 08:34:33;;;;;;;14.18;3.50;;;;;;;;;;5005355;28;20024;-79
2021/09/05 08:36:59;;;;;;;14.93;3.35;;;;;;;;;;5021936;28;20121;-80
2021/09/05 08:39:27;;;;;;;11.70;3.30;;;;;;;;;;5006633;28;20013;-80
2021/09/05 08:41:55;;;;;;;12.80;2.97;;;;;;;;;;4992779;28;20039;-80
2021/09/05 08:44:21;;;;;;;11.63;2.80;;;;;;;;;;5000203;28;20138;-81
2021/09/05 08:46:47;;;;;;;11.70;3.00;;;;;;;;;;4994322;28;20022;-79
2021/09/05 08:49:16;;;;;;;12.40;3.03;;;;;;;;;;4997413;28;20033;-80
2021/09/05 08:51:43;;;;;;;12.50;2.97;;;;;;;;;;5001176;28;20034;-80
2021/09/05 08:54:09;;;;;;;17.20;3.17;;;;;;;;;;4998793;28;20061;-80
2021/09/05 08:56:35;;;;;;;11.27;2.97;;;;;;;;;;5002471;28;20550;-80
2021/09/05 08:59:01;;;;;;;14.52;3.00;;;;;;;;;;4991896;28;21298;-80
2021/09/05 09:01:28;;;;;;;11.55;3.15;;;;;;;;;;5008035;28;20029;-82
2021/09/05 09:04:08;;;;;;;10.60;3.03;;;;;;;;;;4997600;28;20037;-80
2021/09/05 09:06:39;;;;;;;10.27;3.00;;;;;;;;;;5002067;28;20037;-81
2021/09/05 09:09:06;;;;;;;10.95;3.00;;;;;;;;;;5015378;28;20056;-80
2021/09/05 09:11:49;;;;;;;12.20;3.00;;;;;;;;;;5001962;28;20136;-80
2021/09/05 09:14:16;;;;;;;11.98;2.90;;;;;;;;;;5006135;28;20097;-80
2021/09/05 09:16:42;;;;;;;13.77;2.95;;;;;;;;;;4998332;28;20796;-81
2021/09/05 09:19:08;;;;;;;11.43;2.60;;;;;;;;;;5001430;28;20851;-80
2021/09/05 09:21:39;;;;;;;12.60;2.83;;;;;;;;;;5005525;28;20056;-81
2021/09/05 09:24:09;;;;;;;9.77;2.47;;;;;;;;;;5004297;28;20099;-79
2021/09/05 09:26:35;;;;;;;14.70;2.67;;;;;;;;;;5002252;28;20023;-80
2021/09/05 09:29:01;;;;;;;10.88;2.70;;;;;;;;;;4997322;28;20053;-80
2021/09/05 09:31:28;;;;;;;9.98;2.40;;;;;;;;;;5001721;28;20036;-81
2021/09/05 09:33:55;;;;;;;13.15;2.90;;;;;;;;;;4991293;28;20111;-80
2021/09/05 09:36:22;;;;;;;10.75;2.58;;;;;;;;;;5003093;28;20039;-81
2021/09/05 09:38:54;;;;;;;13.90;2.70;;;;;;;;;;4990639;28;20033;-81
2021/09/05 09:41:20;;;;;;;10.05;2.55;;;;;;;;;;5000240;28;20915;-81
2021/09/05 09:43:51;;;;;;;9.35;2.30;;;;;;;;;;4993362;28;20029;-80
2021/09/05 09:46:18;;;;;;;10.57;2.58;;;;;;;;;;5007795;28;20029;-80
2021/09/05 09:48:46;;;;;;;9.95;2.15;;;;;;;;;;5008747;28;20037;-80
2021/09/05 09:51:13;;;;;;;11.18;2.33;;;;;;;;;;5002298;28;20233;-80
2021/09/05 09:53:40;;;;;;;10.40;2.40;;;;;;;;;;5010395;28;20026;-81
2021/09/05 09:56:07;;;;;;;11.77;2.60;;;;;;;;;;4997982;28;20029;-81
2021/09/05 09:58:33;;;;;;;10.65;2.25;;;;;;;;;;5001691;28;20037;-80
2021/09/05 10:01:00;;;;;;;11.93;2.88;;;;;;;;;;5001421;28;20045;-80
2021/09/05 10:03:27;;;;;;;12.05;2.45;;;;;;;;;;5002865;28;20021;-80
2021/09/05 10:05:57;;;;;;;12.85;2.83;;;;;;;;;;5004841;28;20018;-79
2021/09/05 10:08:23;;;;;;;8.65;2.00;;;;;;;;;;5004333;28;20032;-79
2021/09/05 10:10:50;;;;;;;10.85;2.40;;;;;;;;;;4994369;28;20033;-80
2021/09/05 10:13:16;;;;;;;10.70;2.40;;;;;;;;;;4998097;28;20143;-79
2021/09/05 10:15:43;;;;;;;11.00;2.50;;;;;;;;;;5001191;28;20029;-79
2021/09/05 10:18:11;;;;;;;11.18;2.58;;;;;;;;;;4994734;28;20504;-78
2021/09/05 10:20:37;;;;;;;7.40;2.00;;;;;;;;;;4994807;28;20029;-79
2021/09/05 10:23:04;;;;;;;13.73;2.72;;;;;;;;;;4990686;28;22397;-78
2021/09/05 10:25:31;;;;;;;11.07;2.60;;;;;;;;;;4999880;28;20981;-78
2021/09/05 10:27:57;;;;;;;10.95;2.50;;;;;;;;;;4991948;28;20099;-78
2021/09/05 10:30:24;;;;;;;9.65;2.58;;;;;;;;;;5012434;28;20033;-82
2021/09/05 10:32:58;;;;;;;9.63;2.85;;;;;;;;;;4994312;28;20024;-80
2021/09/05 10:35:35;;;;;;;9.02;2.38;;;;;;;;;;4997100;28;20984;-80
2021/09/05 10:38:26;;;;;;;10.07;2.60;;;;;;;;;;4993790;28;20030;-80
2021/09/05 10:40:59;;;;;;;12.15;2.65;;;;;;;;;;5009914;28;20040;-80
2021/09/05 10:43:45;;;;;;;10.77;2.50;;;;;;;;;;5000072;28;20075;-80
2021/09/05 10:46:12;;;;;;;9.77;2.30;;;;;;;;;;4993036;28;20022;-80
2021/09/05 10:48:39;;;;;;;8.00;2.20;;;;;;;;;;4996421;28;20021;-80
2021/09/05 10:51:10;;;;;;;8.57;2.00;;;;;;;;;;4989086;28;20720;-80
2021/09/05 10:53:37;;;;;;;9.20;2.10;;;;;;;;;;4994535;28;20033;-80
2021/09/05 10:56:08;;;;;;;10.40;2.30;;;;;;;;;;4995300;28;21346;-82
2021/09/05 10:58:36;;;;;;;8.45;2.25;;;;;;;;;;4996025;28;20057;-82
2021/09/05 11:01:23;;;;;;;9.77;2.40;;;;;;;;;;4989680;28;20064;-82
2021/09/05 11:04:07;;;;;;;9.77;2.33;;;;;;;;;;4977386;28;20104;-80
2021/09/05 11:06:47;;;;;;;11.03;2.70;;;;;;;;;;4997587;28;20025;-82
2021/09/05 11:09:20;;;;;;;9.65;2.22;;;;;;;;;;5015161;28;20069;-80
2021/09/05 11:11:55;;;;;;;10.73;2.60;;;;;;;;;;4992747;28;20042;-80
2021/09/05 11:14:37;;;;;;;12.40;2.28;;;;;;;;;;4995794;28;20385;-81
2021/09/05 11:17:09;;;;;;;8.63;2.63;;;;;;;;;;5014548;28;20730;-80
2021/09/05 11:19:36;;;;;;;6.47;1.75;;;;;;;;;;4993450;28;20029;-80
2021/09/05 11:22:07;;;;;;;8.32;2.13;;;;;;;;;;4997269;28;20036;-80
2021/09/05 11:24:33;;;;;;;9.38;2.53;;;;;;;;;;4994698;28;20093;-80
2021/09/05 11:26:59;;;;;;;10.43;2.33;;;;;;;;;;4996013;28;20036;-80
2021/09/05 11:29:27;;;;;;;10.05;2.42;;;;;;;;;;4998046;28;20021;-80
2021/09/05 11:31:59;;;;;;;9.57;2.35;;;;;;;;;;4989784;28;20025;-80
2021/09/05 11:34:25;;;;;;;10.55;2.60;;;;;;;;;;4997407;28;20025;-81
2021/09/05 11:36:51;;;;;;;9.25;2.42;;;;;;;;;;5004332;28;20030;-80
2021/09/05 11:39:17;;;;;;;8.32;2.08;;;;;;;;;;4991414;28;20040;-80
2021/09/05 11:41:43;;;;;;;8.88;2.55;;;;;;;;;;4991741;28;20048;-80
2021/09/05 11:44:10;;;;;;;8.23;2.30;;;;;;;;;;4989738;28;20558;-80
2021/09/05 11:46:36;;;;;;;7.72;2.30;;;;;;;;;;4991721;28;20076;-81
2021/09/05 11:49:03;;;;;;;9.45;2.28;;;;;;;;;;4988751;28;20033;-80
2021/09/05 11:51:29;;;;;;;11.50;2.80;;;;;;;;;;4996642;28;20030;-79
2021/09/05 11:54:06;;;;;;;10.13;2.50;;;;;;;;;;4991499;28;20029;-79
2021/09/05 11:56:33;;;;;;;9.10;2.28;;;;;;;;;;4993403;28;20040;-79
2021/09/05 11:59:19;;;;;;;9.30;2.22;;;;;;;;;;4989373;28;20037;-79
2021/09/05 12:01:49;;;;;;;8.20;2.30;;;;;;;;;;4989071;28;20378;-79
2021/09/05 12:04:18;;;;;;;10.75;2.83;;;;;;;;;;4994826;28;20032;-79
2021/09/05 12:06:45;;;;;;;9.45;2.55;;;;;;;;;;4989907;28;21390;-80
2021/09/05 12:09:11;;;;;;;10.35;2.45;;;;;;;;;;4988762;28;20033;-80
2021/09/05 12:11:56;;;;;;;9.93;2.65;;;;;;;;;;4995169;28;20049;-81
2021/09/05 12:14:35;;;;;;;11.68;2.38;;;;;;;;;;4994050;28;20491;-80
2021/09/05 12:17:20;;;;;;;9.88;2.67;;;;;;;;;;4992946;28;20125;-80
2021/09/05 12:19:55;;;;;;;10.93;2.70;;;;;;;;;;4991033;28;20121;-81
2021/09/05 12:22:22;;;;;;;9.70;2.38;;;;;;;;;;4993212;28;20588;-81
2021/09/05 12:24:57;;;;;;;9.65;2.05;;;;;;;;;;4991142;28;20029;-80
2021/09/05 12:27:24;;;;;;;9.57;2.55;;;;;;;;;;5011228;28;20033;-81
2021/09/05 12:29:50;;;;;;;10.27;2.35;;;;;;;;;;4989011;28;20056;-78
2021/09/05 12:32:16;;;;;;;11.75;2.83;;;;;;;;;;5008873;28;20029;-79
2021/09/05 12:34:45;;;;;;;9.50;2.28;;;;;;;;;;4996718;28;20771;-79
2021/09/05 12:37:21;;;;;;;10.70;2.25;;;;;;;;;;4994244;28;20029;-80
2021/09/05 12:39:48;;;;;;;9.23;2.63;;;;;;;;;;4991641;28;20025;-80
2021/09/05 12:42:16;;;;;;;8.98;2.28;;;;;;;;;;4998481;28;20061;-78
2021/09/05 12:44:45;;;;;;;10.00;2.33;;;;;;;;;;5013324;28;20038;-80
2021/09/05 12:47:19;;;;;;;10.65;2.63;;;;;;;;;;4997305;28;20034;-81
2021/09/05 12:49:45;;;;;;;9.35;2.30;;;;;;;;;;4997583;28;20048;-79
2021/09/05 12:52:22;;;;;;;10.18;2.92;;;;;;;;;;4996476;28;20030;-80
2021/09/05 12:54:48;;;;;;;10.07;2.40;;;;;;;;;;4992821;28;20025;-78
2021/09/05 12:57:14;;;;;;;17.35;3.00;;;;;;;;;;4997622;28;21026;-81
2021/09/05 12:59:40;;;;;;;8.55;2.35;;;;;;;;;;5016155;28;20083;-80
2021/09/05 13:02:06;;;;;;;10.27;2.30;;;;;;;;;;4999046;28;20065;-80
2021/09/05 13:04:33;;;;;;;9.73;2.25;;;;;;;;;;5021100;28;20349;-81
2021/09/05 13:06:59;;;;;;;10.02;2.42;;;;;;;;;;4993466;28;20114;-81
2021/09/05 13:09:25;;;;;;;10.50;2.33;;;;;;;;;;5000245;28;20045;-81
2021/09/05 13:11:52;;;;;;;11.75;2.42;;;;;;;;;;5008855;28;20037;-80
2021/09/05 13:14:18;;;;;;;9.95;2.40;;;;;;;;;;4996008;28;20105;-80
2021/09/05 13:16:45;;;;;;;11.45;2.78;;;;;;;;;;4998617;28;20028;-82
2021/09/05 13:19:11;;;;;;;10.02;2.20;;;;;;;;;;5001911;28;20583;-78
2021/09/05 13:21:37;;;;;;;11.13;2.60;;;;;;;;;;4999812;28;20049;-81
2021/09/05 13:24:04;;;;;;;12.25;2.65;;;;;;;;;;4990056;28;20034;-81
2021/09/05 13:26:33;;;;;;;14.75;2.85;;;;;;;;;;4999677;28;20032;-80
2021/09/05 13:28:59;;;;;;;10.57;2.58;;;;;;;;;;4994110;28;20121;-79
2021/09/05 13:31:30;;;;;;;8.60;2.45;;;;;;;;;;5001520;28;20076;-81
2021/09/05 13:33:56;;;;;;;9.73;2.17;;;;;;;;;;4996697;28;20053;-79
2021/09/05 13:36:22;;;;;;;10.88;2.40;;;;;;;;;;4993780;28;20023;-80
2021/09/05 13:38:48;;;;;;;8.80;2.42;;;;;;;;;;4995483;28;20045;-80
2021/09/05 13:41:15;;;;;;;9.77;2.20;;;;;;;;;;4995373;28;20033;-81
2021/09/05 13:43:42;;;;;;;10.32;2.17;;;;;;;;;;5012729;28;20025;-80
2021/09/05 13:46:08;;;;;;;10.70;2.42;;;;;;;;;;4998530;28;20030;-80
2021/09/05 13:48:35;;;;;;;10.02;2.30;;;;;;;;;;4995330;28;20037;-79
2021/09/05 13:51:01;;;;;;;9.20;2.28;;;;;;;;;;4993814;28;20590;-80
2021/09/05 13:53:27;;;;;;;9.82;2.35;;;;;;;;;;4995760;28;20029;-79
2021/09/05 13:55:53;;;;;;;13.02;2.50;;;;;;;;;;4990654;28;20492;-81
2021/09/05 13:58:19;;;;;;;10.15;2.30;;;;;;;;;;4991504;28;20034;-82
2021/09/05 14:00:45;;;;;;;8.55;2.15;;;;;;;;;;4994077;28;20039;-79
2021/09/05 14:03:12;;;;;;;8.45;2.08;;;;;;;;;;4999859;28;20033;-79
2021/09/05 14:05:39;;;;;;;10.95;2.70;;;;;;;;;;4995728;28;20104;-81
2021/09/05 14:08:06;;;;;;;8.65;2.20;;;;;;;;;;4993807;28;20029;-81
2021/09/05 14:10:32;;;;;;;10.60;2.90;;;;;;;;;;4991888;28;20235;-80
2021/09/05 14:12:58;;;;;;;9.52;2.55;;;;;;;;;;4990131;28;20117;-80
2021/09/05 14:15:24;;;;;;;9.48;2.30;;;;;;;;;;4998030;28;20048;-79
2021/09/05 14:17:50;;;;;;;12.38;2.72;;;;;;;;;;4995211;28;20061;-81
2021/09/05 14:20:16;;;;;;;10.90;3.20;;;;;;;;;;4996262;28;20060;-80
2021/09/05 14:22:43;;;;;;;11.02;2.50;;;;;;;;;;4992783;28;20022;-80
2021/09/05 14:25:10;;;;;;;10.73;3.63;;;;;;;;;;5012455;28;20543;-81
2021/09/05 14:27:56;;;;;;;14.32;5.00;;;;;;;;;;4996074;28;20051;-80
2021/09/05 14:33:01;;;;;;;10.00;3.38;;;;;;;;;;4993139;28;20023;-80
2021/09/05 14:49:04;;;;;;;9.52;2.72;;;;;;;;;;4936051;28;20045;-80
2021/09/05 14:54:40;;;;;;;10.65;2.63;;;;;;;;;;4903495;28;20058;-80
2021/09/05 14:57:07;;;;;;;8.35;2.60;;;;;;;;;;4936528;28;20117;-82